sensor_id;sensor_type;location;lat;lon;timestamp;pressure;altitude;pressure_sealevel;temperature;humidity
40708;BME280;26392;42.696;23.350;2023-06-14T00:02:02;95057.66;;;17.36;100.00
40708;BME280;26392;42.696;23.350;2023-06-14T00:04:28;95029.41;;;17.30;100.00
40708;BME280;26392;42.696;23.350;2023-06-14T00:06:55;95050.81;;;17.47;100.00
40708;BME280;26392;42.696;23.350;2023-06-14T00:09:22;95058.69;;;17.54;100.00
40708;BME280;26392;42.696;23.350;2023-06-14T00:11:47;95059.59;;;17.49;100.00
40708;BME280;26392;42.696;23.350;2023-06-14T00:14:13;95052.66;;;17.52;100.00
40708;BME280;26392;42.696;23.350;2023-06-14T00:16:39;95041.38;;;17.53;100.00
40708;BME280;26392;42.696;23.350;2023-06-14T00:19:08;95039.50;;;17.49;100.00
40708;BME280;26392;42.696;23.350;2023-06-14T00:21:33;95036.56;;;17.45;100.00
40708;BME280;26392;42.696;23.350;2023-06-14T00:24:00;95035.84;;;17.53;100.00
40708;BME280;26392;42.696;23.350;2023-06-14T00:26:26;95038.81;;;17.57;100.00
40708;BME280;26392;42.696;23.350;2023-06-14T00:28:52;95035.84;;;17.53;100.00
40708;BME280;26392;42.696;23.350;2023-06-14T00:31:18;95048.06;;;17.61;100.00
40708;BME280;26392;42.696;23.350;2023-06-14T00:33:43;95038.47;;;17.58;100.00
40708;BME280;26392;42.696;23.350;2023-06-14T00:36:09;95042.56;;;17.47;100.00
40708;BME280;26392;42.696;23.350;2023-06-14T00:38:34;95040.41;;;17.44;100.00
40708;BME280;26392;42.696;23.350;2023-06-14T00:41:00;95033.50;;;17.47;100.00
40708;BME280;26392;42.696;23.350;2023-06-14T00:43:25;95034.81;;;17.49;100.00
40708;BME280;26392;42.696;23.350;2023-06-14T00:45:51;95031.16;;;17.54;100.00
40708;BME280;26392;42.696;23.350;2023-06-14T00:48:17;95023.81;;;17.49;100.00
40708;BME280;26392;42.696;23.350;2023-06-14T00:50:44;95011.34;;;17.38;100.00
40708;BME280;26392;42.696;23.350;2023-06-14T00:53:11;95014.63;;;17.40;100.00
40708;BME280;26392;42.696;23.350;2023-06-14T00:55:37;95034.09;;;17.57;100.00
40708;BME280;26392;42.696;23.350;2023-06-14T00:58:03;95031.34;;;17.57;100.00
40708;BME280;26392;42.696;23.350;2023-06-14T01:00:28;95025.31;;;17.55;100.00
40708;BME280;26392;42.696;23.350;2023-06-14T01:02:54;95025.75;;;17.49;100.00
40708;BME280;26392;42.696;23.350;2023-06-14T01:05:20;95031.97;;;17.40;100.00
40708;BME280;26392;42.696;23.350;2023-06-14T01:08:05;95028.41;;;17.40;100.00
40708;BME280;26392;42.696;23.350;2023-06-14T01:15:50;95018.00;;;17.37;100.00
40708;BME280;26392;42.696;23.350;2023-06-14T01:18:16;95028.91;;;17.28;100.00
40708;BME280;26392;42.696;23.350;2023-06-14T01:20:46;95019.41;;;17.20;100.00
40708;BME280;26392;42.696;23.350;2023-06-14T01:23:21;95037.13;;;17.14;100.00
40708;BME280;26392;42.696;23.350;2023-06-14T01:25:48;95026.13;;;17.14;100.00
40708;BME280;26392;42.696;23.350;2023-06-14T01:28:18;95026.16;;;17.28;100.00
40708;BME280;26392;42.696;23.350;2023-06-14T01:30:47;95021.53;;;17.23;100.00
40708;BME280;26392;42.696;23.350;2023-06-14T01:33:20;95018.91;;;17.32;100.00
40708;BME280;26392;42.696;23.350;2023-06-14T01:35:47;95012.84;;;17.16;100.00
40708;BME280;26392;42.696;23.350;2023-06-14T01:38:14;95027.44;;;17.31;100.00
40708;BME280;26392;42.696;23.350;2023-06-14T01:40:42;95022.44;;;17.19;100.00
40708;BME280;26392;42.696;23.350;2023-06-14T01:43:10;95009.28;;;17.02;100.00
40708;BME280;26392;42.696;23.350;2023-06-14T01:45:37;95022.94;;;17.07;100.00
40708;BME280;26392;42.696;23.350;2023-06-14T01:48:03;95024.44;;;16.99;100.00
40708;BME280;26392;42.696;23.350;2023-06-14T01:50:30;95017.53;;;17.02;100.00
40708;BME280;26392;42.696;23.350;2023-06-14T01:52:56;95023.28;;;17.06;100.00
40708;BME280;26392;42.696;23.350;2023-06-14T01:55:22;95024.81;;;17.12;100.00
40708;BME280;26392;42.696;23.350;2023-06-14T01:57:47;95024.38;;;17.18;100.00
40708;BME280;26392;42.696;23.350;2023-06-14T02:00:14;95031.31;;;17.16;100.00
40708;BME280;26392;42.696;23.350;2023-06-14T02:02:40;95013.88;;;17.07;100.00
40708;BME280;26392;42.696;23.350;2023-06-14T02:05:06;95021.94;;;17.03;100.00
40708;BME280;26392;42.696;23.350;2023-06-14T02:07:33;95035.56;;;17.08;100.00
40708;BME280;26392;42.696;23.350;2023-06-14T02:09:58;95036.91;;;17.11;100.00
40708;BME280;26392;42.696;23.350;2023-06-14T02:12:24;95049.25;;;17.13;100.00
40708;BME280;26392;42.696;23.350;2023-06-14T02:14:50;95047.44;;;17.09;100.00
40708;BME280;26392;42.696;23.350;2023-06-14T02:17:16;95050.78;;;17.06;100.00
40708;BME280;26392;42.696;23.350;2023-06-14T02:19:41;95049.94;;;17.05;100.00
40708;BME280;26392;42.696;23.350;2023-06-14T02:22:07;95052.94;;;17.09;100.00
40708;BME280;26392;42.696;23.350;2023-06-14T02:24:33;95058.94;;;17.11;100.00
40708;BME280;26392;42.696;23.350;2023-06-14T02:26:58;95036.78;;;17.02;100.00
40708;BME280;26392;42.696;23.350;2023-06-14T02:29:23;95059.78;;;17.11;100.00
40708;BME280;26392;42.696;23.350;2023-06-14T02:31:49;95058.13;;;17.10;100.00
40708;BME280;26392;42.696;23.350;2023-06-14T02:34:15;95060.75;;;17.02;100.00
40708;BME280;26392;42.696;23.350;2023-06-14T02:36:42;95061.56;;;17.02;100.00
40708;BME280;26392;42.696;23.350;2023-06-14T02:39:11;95046.19;;;17.01;100.00
40708;BME280;26392;42.696;23.350;2023-06-14T02:41:36;95057.59;;;17.08;100.00
40708;BME280;26392;42.696;23.350;2023-06-14T02:44:02;95058.00;;;17.02;100.00
40708;BME280;26392;42.696;23.350;2023-06-14T02:46:27;95059.72;;;16.97;100.00
40708;BME280;26392;42.696;23.350;2023-06-14T02:48:52;95062.97;;;16.99;100.00
40708;BME280;26392;42.696;23.350;2023-06-14T02:51:18;95050.16;;;16.95;100.00
40708;BME280;26392;42.696;23.350;2023-06-14T02:53:43;95058.81;;;17.02;100.00
40708;BME280;26392;42.696;23.350;2023-06-14T02:56:09;95051.84;;;16.91;100.00
40708;BME280;26392;42.696;23.350;2023-06-14T02:58:36;95060.19;;;16.86;100.00
40708;BME280;26392;42.696;23.350;2023-06-14T03:01:02;95061.91;;;16.82;100.00
40708;BME280;26392;42.696;23.350;2023-06-14T03:03:29;95065.47;;;16.82;100.00
40708;BME280;26392;42.696;23.350;2023-06-14T03:05:55;95062.03;;;16.90;100.00
40708;BME280;26392;42.696;23.350;2023-06-14T03:08:20;95064.88;;;16.85;100.00
40708;BME280;26392;42.696;23.350;2023-06-14T03:10:46;95070.81;;;16.73;100.00
40708;BME280;26392;42.696;23.350;2023-06-14T03:13:15;95073.56;;;16.73;100.00
40708;BME280;26392;42.696;23.350;2023-06-14T03:15:42;95062.97;;;16.67;100.00
40708;BME280;26392;42.696;23.350;2023-06-14T03:18:08;95073.22;;;16.61;100.00
40708;BME280;26392;42.696;23.350;2023-06-14T03:20:40;95074.50;;;16.50;100.00
40708;BME280;26392;42.696;23.350;2023-06-14T03:23:06;95082.44;;;16.51;100.00
40708;BME280;26392;42.696;23.350;2023-06-14T03:25:32;95075.53;;;16.54;100.00
40708;BME280;26392;42.696;23.350;2023-06-14T03:28:03;95086.06;;;16.66;100.00
40708;BME280;26392;42.696;23.350;2023-06-14T03:30:30;95094.63;;;16.83;100.00
40708;BME280;26392;42.696;23.350;2023-06-14T03:32:55;95086.72;;;16.95;100.00
40708;BME280;26392;42.696;23.350;2023-06-14T03:35:22;95078.59;;;17.04;100.00
40708;BME280;26392;42.696;23.350;2023-06-14T03:37:47;95070.63;;;17.03;100.00
40708;BME280;26392;42.696;23.350;2023-06-14T03:40:14;95083.25;;;17.22;100.00
40708;BME280;26392;42.696;23.350;2023-06-14T03:42:40;95081.09;;;17.33;100.00
40708;BME280;26392;42.696;23.350;2023-06-14T03:45:06;95094.16;;;17.41;100.00
40708;BME280;26392;42.696;23.350;2023-06-14T03:47:32;95077.34;;;17.43;100.00
40708;BME280;26392;42.696;23.350;2023-06-14T03:49:57;95080.50;;;17.50;100.00
40708;BME280;26392;42.696;23.350;2023-06-14T03:52:23;95084.59;;;17.53;100.00
40708;BME280;26392;42.696;23.350;2023-06-14T03:54:50;95087.25;;;17.58;100.00
40708;BME280;26392;42.696;23.350;2023-06-14T03:57:16;95084.81;;;17.56;100.00
40708;BME280;26392;42.696;23.350;2023-06-14T03:59:42;95085.72;;;17.65;100.00
40708;BME280;26392;42.696;23.350;2023-06-14T04:02:07;95089.63;;;17.78;100.00
40708;BME280;26392;42.696;23.350;2023-06-14T04:04:34;95091.06;;;17.89;100.00
40708;BME280;26392;42.696;23.350;2023-06-14T04:07:01;95082.06;;;17.84;100.00
40708;BME280;26392;42.696;23.350;2023-06-14T04:09:29;95086.47;;;17.99;100.00
40708;BME280;26392;42.696;23.350;2023-06-14T04:11:54;95085.25;;;18.05;100.00
40708;BME280;26392;42.696;23.350;2023-06-14T04:14:20;95085.94;;;18.10;100.00
40708;BME280;26392;42.696;23.350;2023-06-14T04:16:47;95080.59;;;18.28;100.00
40708;BME280;26392;42.696;23.350;2023-06-14T04:19:12;95082.00;;;18.39;100.00
40708;BME280;26392;42.696;23.350;2023-06-14T04:21:38;95078.31;;;18.44;100.00
40708;BME280;26392;42.696;23.350;2023-06-14T04:24:04;95063.88;;;18.61;100.00
40708;BME280;26392;42.696;23.350;2023-06-14T04:26:29;95086.06;;;19.45;100.00
40708;BME280;26392;42.696;23.350;2023-06-14T04:28:55;95085.94;;;20.48;100.00
40708;BME280;26392;42.696;23.350;2023-06-14T04:31:22;95078.31;;;21.79;100.00
40708;BME280;26392;42.696;23.350;2023-06-14T04:33:50;95077.22;;;23.11;100.00
40708;BME280;26392;42.696;23.350;2023-06-14T04:36:18;95085.81;;;23.84;100.00
40708;BME280;26392;42.696;23.350;2023-06-14T04:38:44;95077.72;;;24.04;100.00
40708;BME280;26392;42.696;23.350;2023-06-14T04:41:11;95077.47;;;23.84;100.00
40708;BME280;26392;42.696;23.350;2023-06-14T04:43:37;95072.38;;;23.53;100.00
40708;BME280;26392;42.696;23.350;2023-06-14T04:46:06;95079.28;;;23.35;100.00
40708;BME280;26392;42.696;23.350;2023-06-14T04:48:35;95075.19;;;22.78;100.00
40708;BME280;26392;42.696;23.350;2023-06-14T04:51:00;95079.72;;;22.32;100.00
40708;BME280;26392;42.696;23.350;2023-06-14T04:53:26;95080.78;;;21.80;100.00
40708;BME280;26392;42.696;23.350;2023-06-14T04:55:54;95084.47;;;21.46;100.00
40708;BME280;26392;42.696;23.350;2023-06-14T04:58:20;95084.78;;;21.36;100.00
40708;BME280;26392;42.696;23.350;2023-06-14T05:00:45;95086.44;;;21.19;100.00
40708;BME280;26392;42.696;23.350;2023-06-14T05:03:10;95084.22;;;20.95;100.00
40708;BME280;26392;42.696;23.350;2023-06-14T05:05:39;95091.53;;;21.00;100.00
40708;BME280;26392;42.696;23.350;2023-06-14T05:08:05;95094.09;;;21.22;100.00
40708;BME280;26392;42.696;23.350;2023-06-14T05:10:31;95106.16;;;21.44;100.00
40708;BME280;26392;42.696;23.350;2023-06-14T05:12:56;95095.59;;;21.37;100.00
40708;BME280;26392;42.696;23.350;2023-06-14T05:15:21;95099.63;;;21.57;100.00
40708;BME280;26392;42.696;23.350;2023-06-14T05:17:50;95094.59;;;21.42;100.00
40708;BME280;26392;42.696;23.350;2023-06-14T05:20:20;95099.47;;;21.54;100.00
40708;BME280;26392;42.696;23.350;2023-06-14T05:22:46;95100.28;;;21.54;100.00
40708;BME280;26392;42.696;23.350;2023-06-14T05:25:12;95102.25;;;21.92;100.00
40708;BME280;26392;42.696;23.350;2023-06-14T05:27:37;95101.56;;;22.04;100.00
40708;BME280;26392;42.696;23.350;2023-06-14T05:30:03;95110.56;;;21.92;100.00
40708;BME280;26392;42.696;23.350;2023-06-14T05:32:29;95115.66;;;21.81;100.00
40708;BME280;26392;42.696;23.350;2023-06-14T05:34:55;95118.41;;;21.43;100.00
40708;BME280;26392;42.696;23.350;2023-06-14T05:37:21;95122.16;;;21.12;100.00
40708;BME280;26392;42.696;23.350;2023-06-14T05:39:46;95125.09;;;20.90;100.00
40708;BME280;26392;42.696;23.350;2023-06-14T05:42:12;95120.19;;;20.69;100.00
40708;BME280;26392;42.696;23.350;2023-06-14T05:44:38;95108.78;;;20.62;100.00
40708;BME280;26392;42.696;23.350;2023-06-14T05:47:04;95103.09;;;20.59;100.00
40708;BME280;26392;42.696;23.350;2023-06-14T05:49:30;95109.41;;;20.50;100.00
40708;BME280;26392;42.696;23.350;2023-06-14T05:51:56;95129.47;;;20.56;100.00
40708;BME280;26392;42.696;23.350;2023-06-14T05:54:21;95124.56;;;20.53;100.00
40708;BME280;26392;42.696;23.350;2023-06-14T05:56:46;95135.56;;;20.35;100.00
40708;BME280;26392;42.696;23.350;2023-06-14T05:59:12;95134.28;;;19.93;100.00
40708;BME280;26392;42.696;23.350;2023-06-14T06:01:37;95128.59;;;19.98;100.00
40708;BME280;26392;42.696;23.350;2023-06-14T06:04:05;95131.69;;;19.97;100.00
40708;BME280;26392;42.696;23.350;2023-06-14T06:06:31;95126.56;;;20.21;100.00
40708;BME280;26392;42.696;23.350;2023-06-14T06:08:57;95136.72;;;20.52;100.00
40708;BME280;26392;42.696;23.350;2023-06-14T06:11:23;95136.47;;;20.79;100.00
40708;BME280;26392;42.696;23.350;2023-06-14T06:13:48;95133.56;;;20.85;100.00
40708;BME280;26392;42.696;23.350;2023-06-14T06:16:14;95136.13;;;20.64;100.00
40708;BME280;26392;42.696;23.350;2023-06-14T06:18:40;95137.44;;;20.66;100.00
40708;BME280;26392;42.696;23.350;2023-06-14T06:21:05;95133.41;;;20.98;100.00
40708;BME280;26392;42.696;23.350;2023-06-14T06:23:31;95137.16;;;21.37;100.00
40708;BME280;26392;42.696;23.350;2023-06-14T06:25:56;95128.94;;;21.58;100.00
40708;BME280;26392;42.696;23.350;2023-06-14T06:28:22;95139.00;;;21.80;100.00
40708;BME280;26392;42.696;23.350;2023-06-14T06:30:47;95134.00;;;21.65;100.00
40708;BME280;26392;42.696;23.350;2023-06-14T06:33:13;95134.41;;;21.84;100.00
40708;BME280;26392;42.696;23.350;2023-06-14T06:35:39;95146.00;;;21.86;100.00
40708;BME280;26392;42.696;23.350;2023-06-14T06:38:04;95143.25;;;21.78;100.00
40708;BME280;26392;42.696;23.350;2023-06-14T06:40:30;95140.50;;;21.69;100.00
40708;BME280;26392;42.696;23.350;2023-06-14T06:42:55;95146.56;;;21.62;100.00
40708;BME280;26392;42.696;23.350;2023-06-14T06:45:24;95138.78;;;21.12;100.00
40708;BME280;26392;42.696;23.350;2023-06-14T06:47:50;95141.84;;;21.11;100.00
40708;BME280;26392;42.696;23.350;2023-06-14T06:50:15;95146.09;;;21.34;100.00
40708;BME280;26392;42.696;23.350;2023-06-14T06:52:41;95138.56;;;21.61;100.00
40708;BME280;26392;42.696;23.350;2023-06-14T06:55:06;95139.81;;;21.81;100.00
40708;BME280;26392;42.696;23.350;2023-06-14T06:57:32;95142.53;;;21.98;100.00
40708;BME280;26392;42.696;23.350;2023-06-14T06:59:57;95136.81;;;22.03;100.00
40708;BME280;26392;42.696;23.350;2023-06-14T07:02:23;95141.22;;;21.96;100.00
40708;BME280;26392;42.696;23.350;2023-06-14T07:04:48;95146.59;;;21.54;100.00
40708;BME280;26392;42.696;23.350;2023-06-14T07:07:14;95146.13;;;21.43;100.00
40708;BME280;26392;42.696;23.350;2023-06-14T07:09:39;95144.16;;;21.26;100.00
40708;BME280;26392;42.696;23.350;2023-06-14T07:12:07;95141.03;;;21.36;100.00
40708;BME280;26392;42.696;23.350;2023-06-14T07:14:33;95149.00;;;21.64;100.00
40708;BME280;26392;42.696;23.350;2023-06-14T07:16:58;95146.00;;;21.86;100.00
40708;BME280;26392;42.696;23.350;2023-06-14T07:19:23;95143.00;;;22.00;100.00
40708;BME280;26392;42.696;23.350;2023-06-14T07:21:49;95131.22;;;22.12;100.00
40708;BME280;26392;42.696;23.350;2023-06-14T07:24:14;95136.47;;;22.43;100.00
40708;BME280;26392;42.696;23.350;2023-06-14T07:26:40;95143.19;;;22.72;100.00
40708;BME280;26392;42.696;23.350;2023-06-14T07:29:05;95143.44;;;22.79;100.00
40708;BME280;26392;42.696;23.350;2023-06-14T07:31:31;95137.53;;;23.10;100.00
40708;BME280;26392;42.696;23.350;2023-06-14T07:33:56;95133.72;;;23.15;100.00
40708;BME280;26392;42.696;23.350;2023-06-14T07:36:22;95134.75;;;23.31;100.00
40708;BME280;26392;42.696;23.350;2023-06-14T07:38:48;95136.16;;;23.37;100.00
40708;BME280;26392;42.696;23.350;2023-06-14T07:41:13;95130.41;;;23.55;100.00
40708;BME280;26392;42.696;23.350;2023-06-14T07:43:39;95135.97;;;23.55;100.00
40708;BME280;26392;42.696;23.350;2023-06-14T07:46:04;95128.03;;;23.65;100.00
40708;BME280;26392;42.696;23.350;2023-06-14T07:48:30;95126.84;;;23.66;100.00
40708;BME280;26392;42.696;23.350;2023-06-14T07:50:55;95131.09;;;23.73;100.00
40708;BME280;26392;42.696;23.350;2023-06-14T07:53:21;95129.94;;;23.86;100.00
40708;BME280;26392;42.696;23.350;2023-06-14T07:55:46;95144.16;;;24.18;100.00
40708;BME280;26392;42.696;23.350;2023-06-14T07:58:13;95141.25;;;24.39;100.00
40708;BME280;26392;42.696;23.350;2023-06-14T08:00:39;95149.13;;;24.37;100.00
40708;BME280;26392;42.696;23.350;2023-06-14T08:03:04;95141.06;;;24.56;100.00
40708;BME280;26392;42.696;23.350;2023-06-14T08:05:30;95150.94;;;24.53;98.29
40708;BME280;26392;42.696;23.350;2023-06-14T08:07:55;95148.16;;;24.66;99.50
40708;BME280;26392;42.696;23.350;2023-06-14T08:10:21;95154.75;;;24.73;92.36
40708;BME280;26392;42.696;23.350;2023-06-14T08:12:47;95164.56;;;25.20;91.36
40708;BME280;26392;42.696;23.350;2023-06-14T08:15:15;95161.16;;;25.39;90.07
40708;BME280;26392;42.696;23.350;2023-06-14T08:17:42;95163.59;;;25.40;88.55
40708;BME280;26392;42.696;23.350;2023-06-14T08:20:09;95163.72;;;25.32;83.71
40708;BME280;26392;42.696;23.350;2023-06-14T08:22:35;95164.19;;;25.34;83.00
40708;BME280;26392;42.696;23.350;2023-06-14T08:25:01;95168.88;;;25.17;82.50
40708;BME280;26392;42.696;23.350;2023-06-14T08:27:27;95153.53;;;25.11;84.27
40708;BME280;26392;42.696;23.350;2023-06-14T08:29:52;95155.00;;;25.33;84.40
40708;BME280;26392;42.696;23.350;2023-06-14T08:32:18;95173.03;;;25.64;83.05
40708;BME280;26392;42.696;23.350;2023-06-14T08:34:43;95168.50;;;25.59;77.48
40708;BME280;26392;42.696;23.350;2023-06-14T08:37:09;95170.22;;;25.36;80.00
40708;BME280;26392;42.696;23.350;2023-06-14T08:39:34;95167.91;;;25.26;78.38
40708;BME280;26392;42.696;23.350;2023-06-14T08:42:01;95150.31;;;24.97;81.15
40708;BME280;26392;42.696;23.350;2023-06-14T08:44:29;95145.31;;;25.43;82.47
40708;BME280;26392;42.696;23.350;2023-06-14T08:46:56;95150.06;;;25.83;77.54
40708;BME280;26392;42.696;23.350;2023-06-14T08:49:24;95142.53;;;26.15;74.12
40708;BME280;26392;42.696;23.350;2023-06-14T08:51:57;95140.28;;;26.05;73.69
40708;BME280;26392;42.696;23.350;2023-06-14T08:54:25;95137.72;;;25.84;69.96
40708;BME280;26392;42.696;23.350;2023-06-14T08:56:53;95143.63;;;25.54;73.81
40708;BME280;26392;42.696;23.350;2023-06-14T08:59:18;95142.47;;;25.27;78.08
40708;BME280;26392;42.696;23.350;2023-06-14T09:01:46;95135.97;;;25.23;80.11
40708;BME280;26392;42.696;23.350;2023-06-14T09:04:12;95141.06;;;24.68;85.08
40708;BME280;26392;42.696;23.350;2023-06-14T09:06:38;95144.00;;;24.02;90.24
40708;BME280;26392;42.696;23.350;2023-06-14T09:09:03;95144.13;;;23.93;92.96
40708;BME280;26392;42.696;23.350;2023-06-14T09:11:30;95134.69;;;23.85;96.13
40708;BME280;26392;42.696;23.350;2023-06-14T09:13:55;95133.56;;;23.86;93.60
40708;BME280;26392;42.696;23.350;2023-06-14T09:16:21;95135.78;;;23.93;88.78
40708;BME280;26392;42.696;23.350;2023-06-14T09:18:47;95132.06;;;24.01;89.47
40708;BME280;26392;42.696;23.350;2023-06-14T09:21:16;95116.50;;;23.88;89.26
40708;BME280;26392;42.696;23.350;2023-06-14T09:23:44;95130.09;;;24.02;90.50
40708;BME280;26392;42.696;23.350;2023-06-14T09:26:11;95129.06;;;24.31;89.05
40708;BME280;26392;42.696;23.350;2023-06-14T09:28:48;95136.19;;;24.53;87.36
40708;BME280;26392;42.696;23.350;2023-06-14T09:31:16;95123.19;;;24.69;82.50
40708;BME280;26392;42.696;23.350;2023-06-14T09:33:45;95128.75;;;24.32;85.44
40708;BME280;26392;42.696;23.350;2023-06-14T09:36:23;95124.81;;;24.70;83.17
40708;BME280;26392;42.696;23.350;2023-06-14T09:38:53;95126.25;;;25.17;78.83
40708;BME280;26392;42.696;23.350;2023-06-14T09:41:19;95124.59;;;25.56;78.18
40708;BME280;26392;42.696;23.350;2023-06-14T09:43:46;95120.00;;;25.64;71.31
40708;BME280;26392;42.696;23.350;2023-06-14T09:46:13;95117.72;;;25.38;76.46
40708;BME280;26392;42.696;23.350;2023-06-14T09:48:39;95109.66;;;25.64;78.14
40708;BME280;26392;42.696;23.350;2023-06-14T09:51:10;95107.75;;;25.53;80.02
40708;BME280;26392;42.696;23.350;2023-06-14T09:53:36;95105.03;;;25.84;73.73
40708;BME280;26392;42.696;23.350;2023-06-14T09:56:05;95107.97;;;25.76;72.99
40708;BME280;26392;42.696;23.350;2023-06-14T09:58:31;95100.78;;;25.75;75.34
40708;BME280;26392;42.696;23.350;2023-06-14T10:01:00;95114.63;;;25.15;74.18
40708;BME280;26392;42.696;23.350;2023-06-14T10:03:30;95102.75;;;24.77;76.87
40708;BME280;26392;42.696;23.350;2023-06-14T10:05:58;95096.41;;;24.65;76.60
40708;BME280;26392;42.696;23.350;2023-06-14T10:08:30;95096.59;;;24.72;79.46
40708;BME280;26392;42.696;23.350;2023-06-14T10:10:58;95091.50;;;24.74;75.76
40708;BME280;26392;42.696;23.350;2023-06-14T10:13:26;95097.47;;;25.00;74.98
40708;BME280;26392;42.696;23.350;2023-06-14T10:16:00;95096.22;;;25.26;78.41
40708;BME280;26392;42.696;23.350;2023-06-14T10:18:36;95083.06;;;25.39;69.50
40708;BME280;26392;42.696;23.350;2023-06-14T10:21:18;95075.91;;;25.54;70.75
40708;BME280;26392;42.696;23.350;2023-06-14T10:23:46;95075.03;;;25.65;68.55
40708;BME280;26392;42.696;23.350;2023-06-14T10:26:23;95070.31;;;25.38;70.54
40708;BME280;26392;42.696;23.350;2023-06-14T10:29:01;95076.75;;;25.14;71.65
40708;BME280;26392;42.696;23.350;2023-06-14T10:34:06;95078.06;;;25.04;71.25
40708;BME280;26392;42.696;23.350;2023-06-14T10:36:31;95064.41;;;25.27;72.69
40708;BME280;26392;42.696;23.350;2023-06-14T10:41:39;95063.78;;;25.18;76.53
40708;BME280;26392;42.696;23.350;2023-06-14T10:46:39;95064.34;;;24.71;74.10
40708;BME280;26392;42.696;23.350;2023-06-14T10:49:05;95058.22;;;24.65;77.05
40708;BME280;26392;42.696;23.350;2023-06-14T10:51:38;95062.09;;;24.89;78.85
40708;BME280;26392;42.696;23.350;2023-06-14T10:54:20;95056.94;;;25.15;78.80
40708;BME280;26392;42.696;23.350;2023-06-14T10:56:46;95053.56;;;25.10;76.30
40708;BME280;26392;42.696;23.350;2023-06-14T10:59:13;95052.44;;;24.98;77.72
40708;BME280;26392;42.696;23.350;2023-06-14T11:01:44;95044.59;;;24.76;76.70
40708;BME280;26392;42.696;23.350;2023-06-14T11:04:17;95046.72;;;24.95;76.90
40708;BME280;26392;42.696;23.350;2023-06-14T11:06:50;95032.78;;;25.07;70.33
40708;BME280;26392;42.696;23.350;2023-06-14T11:09:41;95025.81;;;25.57;70.72
40708;BME280;26392;42.696;23.350;2023-06-14T11:12:13;95021.78;;;25.86;72.09
40708;BME280;26392;42.696;23.350;2023-06-14T11:14:40;95029.50;;;26.25;69.50
40708;BME280;26392;42.696;23.350;2023-06-14T11:17:05;95033.63;;;26.47;66.86
40708;BME280;26392;42.696;23.350;2023-06-14T11:19:31;95031.91;;;26.58;62.75
40708;BME280;26392;42.696;23.350;2023-06-14T11:21:57;95024.69;;;26.57;64.14
40708;BME280;26392;42.696;23.350;2023-06-14T11:24:25;95020.00;;;26.45;65.22
40708;BME280;26392;42.696;23.350;2023-06-14T11:26:51;95016.34;;;26.41;63.83
40708;BME280;26392;42.696;23.350;2023-06-14T11:29:16;95014.75;;;26.08;66.59
40708;BME280;26392;42.696;23.350;2023-06-14T11:31:45;95003.59;;;25.77;66.75
40708;BME280;26392;42.696;23.350;2023-06-14T11:34:12;95012.03;;;25.80;68.75
40708;BME280;26392;42.696;23.350;2023-06-14T11:36:38;95013.13;;;26.07;66.14
40708;BME280;26392;42.696;23.350;2023-06-14T11:39:05;95012.50;;;26.30;64.06
40708;BME280;26392;42.696;23.350;2023-06-14T11:41:40;95009.13;;;26.40;64.42
40708;BME280;26392;42.696;23.350;2023-06-14T11:44:06;95002.41;;;26.61;64.28
40708;BME280;26392;42.696;23.350;2023-06-14T11:46:32;95010.09;;;26.83;61.40
40708;BME280;26392;42.696;23.350;2023-06-14T11:48:58;94970.53;;;26.62;61.25
40708;BME280;26392;42.696;23.350;2023-06-14T11:51:23;95004.81;;;26.78;59.21
40708;BME280;26392;42.696;23.350;2023-06-14T11:53:49;94996.41;;;26.78;58.54
40708;BME280;26392;42.696;23.350;2023-06-14T11:56:15;94990.44;;;26.79;60.74
40708;BME280;26392;42.696;23.350;2023-06-14T11:58:43;94984.44;;;26.58;60.31
40708;BME280;26392;42.696;23.350;2023-06-14T12:01:08;94989.97;;;26.23;61.10
40708;BME280;26392;42.696;23.350;2023-06-14T12:03:34;94979.06;;;26.18;60.65
40708;BME280;26392;42.696;23.350;2023-06-14T12:06:04;94971.78;;;26.13;62.28
40708;BME280;26392;42.696;23.350;2023-06-14T12:08:34;94961.72;;;26.08;60.39
40708;BME280;26392;42.696;23.350;2023-06-14T12:11:04;94963.31;;;26.25;63.67
40708;BME280;26392;42.696;23.350;2023-06-14T12:13:30;94962.34;;;26.53;61.73
40708;BME280;26392;42.696;23.350;2023-06-14T12:15:56;94960.84;;;26.75;60.67
40708;BME280;26392;42.696;23.350;2023-06-14T12:18:31;94961.16;;;27.12;58.73
40708;BME280;26392;42.696;23.350;2023-06-14T12:20:58;94956.91;;;27.18;56.58
40708;BME280;26392;42.696;23.350;2023-06-14T12:23:38;94949.78;;;27.44;57.47
40708;BME280;26392;42.696;23.350;2023-06-14T12:26:04;94942.53;;;27.39;56.99
40708;BME280;26392;42.696;23.350;2023-06-14T12:28:31;94956.88;;;27.38;55.24
40708;BME280;26392;42.696;23.350;2023-06-14T12:30:57;94947.53;;;27.30;55.04
40708;BME280;26392;42.696;23.350;2023-06-14T12:33:24;94946.78;;;27.33;56.04
40708;BME280;26392;42.696;23.350;2023-06-14T12:35:50;94943.09;;;27.26;56.08
40708;BME280;26392;42.696;23.350;2023-06-14T12:38:16;94938.00;;;27.12;56.64
40708;BME280;26392;42.696;23.350;2023-06-14T12:40:41;94930.25;;;27.05;58.81
40708;BME280;26392;42.696;23.350;2023-06-14T12:43:07;94935.22;;;26.92;60.33
40708;BME280;26392;42.696;23.350;2023-06-14T12:45:33;94933.81;;;27.02;60.28
40708;BME280;26392;42.696;23.350;2023-06-14T12:47:58;94935.75;;;27.17;58.28
40708;BME280;26392;42.696;23.350;2023-06-14T12:50:24;94933.31;;;27.39;59.82
40708;BME280;26392;42.696;23.350;2023-06-14T12:52:49;94929.22;;;27.56;58.58
40708;BME280;26392;42.696;23.350;2023-06-14T12:55:15;94922.44;;;27.57;58.66